Time;durP1;ratioP1;P1;durP2;ratioP2;P2;SDS_P1;SDS_P2;PMS_P1;PMS_P2;Temp;Humidity;BMP_temperature;BMP_pressure;BME280_temperature;BME280_humidity;BME280_pressure;Samples;Min_cycle;Max_cycle;Signal;HPM_P1;HPM_P2
2021/12/06 00:01:40;;;;;;;40.00;18.53;;;2.70;99.90;;;;;;4974587;28;20042;-91
2021/12/06 00:04:19;;;;;;;36.90;17.70;;;1.80;99.90;;;;;;4974426;28;20061;-90
2021/12/06 00:06:53;;;;;;;40.60;18.33;;;3.10;99.90;;;;;;4973733;28;20414;-90
2021/12/06 00:09:20;;;;;;;;;;;1.70;99.90;;;;;;4974998;28;20047;-91
2021/12/06 00:11:46;;;;;;;39.97;18.17;;;1.70;99.90;;;;;;4973993;28;19922;-91
2021/12/06 00:14:12;;;;;;;39.90;17.73;;;2.30;99.90;;;;;;4973520;28;20471;-91
2021/12/06 00:16:38;;;;;;;39.40;18.10;;;3.20;99.90;;;;;;4974370;28;20057;-91
2021/12/06 00:19:06;;;;;;;42.80;18.40;;;1.90;99.90;;;;;;4974225;28;20035;-92
2021/12/06 00:21:31;;;;;;;44.70;19.30;;;1.60;99.90;;;;;;4973812;28;20140;-91
2021/12/06 00:23:57;;;;;;;42.10;17.77;;;1.70;99.90;;;;;;4974435;28;20617;-92
2021/12/06 00:26:23;;;;;;;39.70;18.07;;;1.50;99.90;;;;;;4974444;28;20487;-91
2021/12/06 00:28:56;;;;;;;38.57;17.43;;;2.00;99.90;;;;;;4974128;28;20045;-91
2021/12/06 00:31:23;;;;;;;40.67;18.55;;;1.80;99.90;;;;;;4973105;28;20121;-91
2021/12/06 00:33:54;;;;;;;46.60;18.93;;;2.50;99.90;;;;;;4974123;28;20530;-92
2021/12/06 00:36:27;;;;;;;42.67;18.60;;;1.70;99.90;;;;;;4973760;28;20053;-91
2021/12/06 00:38:53;;;;;;;42.73;17.97;;;1.50;99.90;;;;;;4974294;28;20427;-92
2021/12/06 00:41:19;;;;;;;45.47;19.53;;;1.90;99.90;;;;;;4973152;28;20043;-92
2021/12/06 00:43:45;;;;;;;43.10;19.47;;;2.30;99.90;;;;;;4973560;28;20054;-91
2021/12/06 00:46:11;;;;;;;47.63;21.17;;;1.00;99.90;;;;;;4973412;28;20042;-91
2021/12/06 00:48:37;;;;;;;43.27;19.13;;;;;;;;;;4973410;28;20046;-92
2021/12/06 00:51:05;;;;;;;42.47;19.73;;;1.70;99.90;;;;;;4973602;28;20104;-91
2021/12/06 00:53:31;;;;;;;47.77;21.27;;;1.60;99.90;;;;;;4973913;28;20039;-91
2021/12/06 00:55:57;;;;;;;47.90;20.33;;;1.50;99.90;;;;;;4973256;28;20059;-91
2021/12/06 00:58:23;;;;;;;45.73;20.50;;;1.90;99.90;;;;;;4974178;28;20042;-91
2021/12/06 01:00:53;;;;;;;48.23;21.17;;;1.40;99.90;;;;;;4972890;28;20049;-91
2021/12/06 01:03:23;;;;;;;44.50;20.53;;;1.50;99.90;;;;;;4973316;28;20063;-91
2021/12/06 01:05:49;;;;;;;46.83;20.70;;;2.00;99.90;;;;;;4980013;28;20049;-91
2021/12/06 01:08:16;;;;;;;47.50;20.50;;;3.20;99.90;;;;;;4997610;28;20051;-91
2021/12/06 01:10:43;;;;;;;45.87;20.07;;;1.80;99.90;;;;;;4973954;28;20047;-90
2021/12/06 01:13:08;;;;;;;45.30;20.47;;;1.60;99.90;;;;;;4974302;28;20512;-90
2021/12/06 01:15:36;;;;;;;47.43;19.93;;;1.50;99.90;;;;;;4985883;28;20030;-91
2021/12/06 01:18:05;;;;;;;50.17;20.57;;;1.80;99.90;;;;;;4994257;28;20047;-91
2021/12/06 01:20:38;;;;;;;50.57;21.33;;;1.40;99.90;;;;;;4974031;28;20050;-91
2021/12/06 01:23:07;;;;;;;52.10;21.30;;;1.50;99.90;;;;;;4973974;28;20049;-91
2021/12/06 01:25:54;;;;;;;54.43;21.63;;;2.10;99.90;;;;;;4972948;28;20053;-91
2021/12/06 01:39:11;;;;;;;54.63;21.23;;;1.70;99.90;;;;;;4972737;28;20047;-92
2021/12/06 01:41:41;;;;;;;55.10;21.48;;;1.50;99.90;;;;;;4973652;28;20090;-92
2021/12/06 01:44:16;;;;;;;49.93;20.83;;;2.50;99.90;;;;;;4973229;28;20054;-91
2021/12/06 01:46:55;;;;;;;56.37;20.47;;;1.70;99.90;;;;;;4957198;28;20132;-92
2021/12/06 01:49:23;;;;;;;54.13;21.37;;;1.70;99.90;;;;;;4973227;28;20141;-92
2021/12/06 01:51:51;;;;;;;56.17;22.03;;;2.50;99.90;;;;;;4975988;28;20051;-92
2021/12/06 01:54:18;;;;;;;51.57;21.50;;;3.10;99.90;;;;;;4977136;28;20498;-92
2021/12/06 01:56:44;;;;;;;53.40;21.20;;;2.00;99.90;;;;;;4976485;28;20053;-91
2021/12/06 01:59:11;;;;;;;55.43;21.87;;;1.50;99.90;;;;;;4976645;28;20043;-91
2021/12/06 02:01:37;;;;;;;58.70;23.47;;;2.00;99.90;;;;;;4976997;28;20045;-91
2021/12/06 02:04:04;;;;;;;53.10;21.70;;;1.50;99.90;;;;;;4976220;28;20051;-91
2021/12/06 02:06:30;;;;;;;62.47;23.00;;;1.80;99.90;;;;;;4976087;28;20392;-91
2021/12/06 02:08:56;;;;;;;55.43;21.80;;;2.70;99.90;;;;;;4976744;28;20046;-91
2021/12/06 02:11:25;;;;;;;60.43;22.00;;;1.50;99.90;;;;;;4976332;28;20045;-92
2021/12/06 02:14:01;;;;;;;54.20;22.47;;;1.60;99.90;;;;;;4976616;28;20086;-91
2021/12/06 02:16:37;;;;;;;53.60;21.07;;;1.50;99.90;;;;;;4986794;28;20073;-90
2021/12/06 02:19:05;;;;;;;62.70;23.10;;;1.60;99.90;;;;;;5001105;28;20086;-90
2021/12/06 02:21:36;;;;;;;64.30;22.87;;;2.60;99.90;;;;;;5000551;28;20038;-91
2021/12/06 02:24:06;;;;;;;67.67;23.70;;;1.60;99.90;;;;;;4996046;28;20057;-91
2021/12/06 02:26:32;;;;;;;67.20;23.70;;;1.70;99.90;;;;;;4976197;28;20051;-92
2021/12/06 02:28:57;;;;;;;61.93;23.97;;;2.60;99.90;;;;;;4976131;28;20057;-91
2021/12/06 02:31:26;;;;;;;56.53;22.93;;;1.80;99.90;;;;;;4976774;28;20043;-92
2021/12/06 02:33:52;;;;;;;59.07;23.50;;;2.00;99.90;;;;;;4975214;28;20913;-91
2021/12/06 02:36:19;;;;;;;60.77;24.53;;;1.60;99.90;;;;;;4976290;28;20055;-92
2021/12/06 02:38:45;;;;;;;62.63;24.33;;;1.50;99.90;;;;;;4976007;28;20496;-92
2021/12/06 02:41:13;;;;;;;62.63;23.60;;;1.60;99.90;;;;;;4975635;28;20050;-91
2021/12/06 02:43:40;;;;;;;65.23;24.67;;;1.50;99.90;;;;;;4976412;28;20137;-91
2021/12/06 02:46:06;;;;;;;65.87;24.30;;;1.80;99.90;;;;;;4976215;28;20488;-91
2021/12/06 02:48:32;;;;;;;62.20;24.27;;;2.10;99.90;;;;;;4975052;28;20039;-91
2021/12/06 02:51:02;;;;;;;71.70;25.10;;;1.60;99.90;;;;;;4975694;28;20054;-92
2021/12/06 02:53:29;;;;;;;72.37;25.00;;;1.50;99.90;;;;;;4975954;28;20062;-91
2021/12/06 02:55:59;;;;;;;64.17;24.93;;;1.70;99.90;;;;;;4975346;28;20039;-93
2021/12/06 03:01:05;;;;;;;72.57;26.13;;;1.80;99.90;;;;;;4983444;28;20039;-90
2021/12/06 03:03:30;;;;;;;70.23;24.60;;;2.00;99.90;;;;;;4975274;29;20059;-91
2021/12/06 03:05:57;;;;;;;67.27;24.13;;;1.70;99.90;;;;;;4955634;29;20551;-92
2021/12/06 03:08:42;;;;;;;68.30;25.33;;;1.60;99.90;;;;;;4956526;29;20039;-92
2021/12/06 03:11:14;;;;;;;73.00;25.93;;;1.80;99.90;;;;;;4977800;29;20102;-91
2021/12/06 03:13:40;;;;;;;73.13;25.77;;;1.50;99.90;;;;;;4960898;29;20122;-91
2021/12/06 03:16:06;;;;;;;73.33;26.67;;;1.80;99.90;;;;;;4956288;29;20103;-93
2021/12/06 03:18:32;;;;;;;69.27;26.83;;;1.40;99.90;;;;;;4956182;29;20047;-91
2021/12/06 03:20:58;;;;;;;68.67;25.67;;;2.50;99.90;;;;;;4955877;29;20098;-92
2021/12/06 03:23:24;;;;;;;65.57;25.23;;;1.50;99.90;;;;;;4955641;29;20044;-92
2021/12/06 03:25:50;;;;;;;67.73;26.13;;;1.50;99.90;;;;;;4955636;29;20118;-91
2021/12/06 03:28:16;;;;;;;75.53;26.67;;;2.40;99.90;;;;;;4955428;29;20091;-91
2021/12/06 03:30:41;;;;;;;68.80;26.57;;;2.20;99.90;;;;;;4955140;29;20047;-91
2021/12/06 03:33:07;;;;;;;79.43;27.33;;;2.50;99.90;;;;;;4955941;29;20138;-91
2021/12/06 03:35:33;;;;;;;79.40;27.27;;;2.10;99.90;;;;;;4955903;29;20047;-91
2021/12/06 03:37:59;;;;;;;87.07;27.60;;;2.10;99.90;;;;;;4954965;29;20047;-91
2021/12/06 03:40:24;;;;;;;68.67;26.33;;;2.40;99.90;;;;;;4955512;29;20047;-91
2021/12/06 03:42:50;;;;;;;81.07;26.83;;;1.60;99.90;;;;;;4955163;29;20130;-92
2021/12/06 03:45:16;;;;;;;87.10;27.20;;;2.40;99.90;;;;;;4954799;29;20062;-91
2021/12/06 03:47:42;;;;;;;72.13;25.80;;;1.20;99.90;;;;;;4955390;29;20489;-91
2021/12/06 03:50:09;;;;;;;78.63;26.83;;;1.50;99.90;;;;;;4956190;29;20063;-91
2021/12/06 03:52:35;;;;;;;76.60;26.10;;;1.80;99.90;;;;;;4954634;29;20054;-92
2021/12/06 03:55:02;;;;;;;71.80;26.37;;;2.80;99.90;;;;;;4955293;29;20051;-91
2021/12/06 03:57:28;;;;;;;75.00;27.47;;;2.00;99.90;;;;;;4955187;29;20047;-92
2021/12/06 03:59:54;;;;;;;75.53;26.67;;;1.60;99.90;;;;;;4954364;29;20168;-92
2021/12/06 04:02:27;;;;;;;87.50;27.63;;;2.10;99.90;;;;;;4955864;29;20050;-92
2021/12/06 04:04:53;;;;;;;83.93;27.40;;;1.60;99.90;;;;;;4954922;29;20062;-92
2021/12/06 04:07:21;;;;;;;90.10;28.73;;;1.60;99.90;;;;;;4954848;29;20107;-91
2021/12/06 04:09:47;;;;;;;89.80;28.03;;;1.70;99.90;;;;;;4955431;29;20055;-91
2021/12/06 04:12:14;;;;;;;90.67;27.80;;;2.20;99.90;;;;;;4953879;29;20047;-92
2021/12/06 04:14:40;;;;;;;94.60;28.60;;;2.30;99.90;;;;;;4954672;28;20129;-91
2021/12/06 04:17:06;;;;;;;88.60;28.23;;;1.60;99.90;;;;;;4955714;29;20109;-91
2021/12/06 04:19:32;;;;;;;94.03;30.00;;;2.20;99.90;;;;;;4954471;29;20400;-91
2021/12/06 04:21:58;;;;;;;86.40;28.77;;;2.20;99.90;;;;;;4954698;29;20043;-91
2021/12/06 04:24:24;;;;;;;90.83;29.67;;;1.60;99.90;;;;;;4954869;29;20039;-91
2021/12/06 04:26:50;;;;;;;82.90;26.70;;;1.30;99.90;;;;;;4953405;29;20510;-91
2021/12/06 04:29:16;;;;;;;90.03;27.67;;;1.60;99.90;;;;;;4957185;29;20051;-91
2021/12/06 04:31:47;;;;;;;86.10;28.07;;;1.60;99.90;;;;;;4954496;29;20047;-91
2021/12/06 04:34:13;;;;;;;84.50;27.40;;;1.60;99.90;;;;;;4954428;29;20051;-91
2021/12/06 04:36:40;;;;;;;91.93;28.70;;;2.70;99.90;;;;;;4954933;29;20412;-92
2021/12/06 04:39:09;;;;;;;86.60;28.00;;;1.50;99.90;;;;;;4954952;29;20050;-92
2021/12/06 04:41:36;;;;;;;81.77;28.40;;;1.60;99.90;;;;;;4954101;29;20459;-92
2021/12/06 04:44:02;;;;;;;80.23;27.73;;;1.50;99.90;;;;;;4953894;29;20049;-90
2021/12/06 04:46:28;;;;;;;83.57;26.57;;;3.10;99.90;;;;;;4954551;29;20165;-90
2021/12/06 04:48:54;;;;;;;81.03;27.50;;;1.60;99.90;;;;;;4954451;29;20504;-91
2021/12/06 04:51:20;;;;;;;80.13;26.73;;;1.70;99.90;;;;;;4954486;29;20051;-92
2021/12/06 04:53:46;;;;;;;83.43;27.97;;;1.70;99.90;;;;;;4954224;29;20047;-91
2021/12/06 04:56:18;;;;;;;86.57;28.50;;;1.60;99.90;;;;;;4975092;28;20099;-92
2021/12/06 04:59:06;;;;;;;84.37;27.80;;;1.90;99.90;;;;;;4962901;28;20154;-90
2021/12/06 05:01:33;;;;;;;86.30;28.10;;;1.80;99.90;;;;;;4961561;28;20043;-91
2021/12/06 05:04:14;;;;;;;87.50;27.50;;;1.60;99.90;;;;;;4940419;29;20032;-91
2021/12/06 05:06:44;;;;;;;92.17;27.20;;;1.50;99.90;;;;;;4955915;28;20048;-92
2021/12/06 05:09:18;;;;;;;84.53;26.80;;;1.60;99.90;;;;;;4918769;29;20063;-92
2021/12/06 05:11:44;;;;;;;;;;;2.80;99.90;;;;;;4920011;29;20505;-92
2021/12/06 05:14:10;;;;;;;78.27;25.50;;;2.80;99.90;;;;;;4935980;29;20261;-91
2021/12/06 05:16:36;;;;;;;83.83;27.50;;;1.90;99.90;;;;;;4935423;29;20397;-91
2021/12/06 05:19:04;;;;;;;88.77;27.33;;;1.70;99.90;;;;;;4937083;29;20044;-91
2021/12/06 05:21:31;;;;;;;79.53;27.77;;;1.70;99.90;;;;;;4955998;28;20055;-91
2021/12/06 05:23:57;;;;;;;83.50;27.43;;;1.60;99.90;;;;;;4941627;29;20039;-91
2021/12/06 05:26:23;;;;;;;83.03;27.03;;;2.80;99.90;;;;;;4953513;29;20046;-92
2021/12/06 05:28:51;;;;;;;76.70;25.93;;;2.40;99.90;;;;;;4945514;29;20046;-91
2021/12/06 05:31:19;;;;;;;77.17;26.47;;;2.60;99.90;;;;;;4939547;29;20051;-91
2021/12/06 05:33:50;;;;;;;66.17;25.47;;;1.60;99.90;;;;;;4939321;29;20071;-91
2021/12/06 05:36:15;;;;;;;66.67;24.87;;;2.60;99.90;;;;;;4939168;29;20051;-92
2021/12/06 05:38:42;;;;;;;61.60;24.43;;;1.70;99.90;;;;;;4938048;29;20452;-91
2021/12/06 05:41:08;;;;;;;63.77;24.33;;;1.60;99.90;;;;;;4938679;29;20559;-92
2021/12/06 05:43:34;;;;;;;67.47;24.87;;;2.60;99.90;;;;;;4939308;29;20047;-90
2021/12/06 05:46:00;;;;;;;68.87;23.37;;;1.70;99.90;;;;;;4937592;29;20056;-91
2021/12/06 05:48:27;;;;;;;72.90;25.47;;;1.70;99.90;;;;;;4938739;29;20081;-91
2021/12/06 05:50:53;;;;;;;63.60;23.90;;;1.60;99.90;;;;;;4937125;29;20043;-92
2021/12/06 05:53:19;;;;;;;63.63;24.70;;;2.30;99.90;;;;;;4938830;29;20138;-91
2021/12/06 05:55:46;;;;;;;63.23;23.57;;;2.70;99.90;;;;;;4937910;29;20048;-92
2021/12/06 05:58:14;;;;;;;60.70;24.53;;;3.00;99.90;;;;;;4937695;29;20501;-91
2021/12/06 06:00:42;;;;;;;62.73;23.60;;;1.60;99.90;;;;;;4922622;29;20035;-91
2021/12/06 06:03:09;;;;;;;58.17;22.10;;;1.60;99.90;;;;;;4926133;29;20055;-91
2021/12/06 06:05:35;;;;;;;58.40;21.93;;;1.80;99.90;;;;;;4956864;29;20059;-91
2021/12/06 06:08:03;;;;;;;58.67;22.93;;;1.80;99.90;;;;;;4957324;29;20134;-91
2021/12/06 06:10:31;;;;;;;56.67;22.07;;;1.80;99.90;;;;;;4952231;29;20059;-91
2021/12/06 06:12:58;;;;;;;60.23;21.73;;;2.40;99.90;;;;;;4955969;29;20389;-91
2021/12/06 06:15:23;;;;;;;60.30;22.37;;;1.60;99.90;;;;;;4957502;29;20039;-91
2021/12/06 06:17:49;;;;;;;59.60;23.17;;;2.20;99.90;;;;;;4957487;29;20058;-92
2021/12/06 06:20:25;;;;;;;59.63;22.03;;;1.60;99.90;;;;;;4956239;29;20131;-92
2021/12/06 06:22:51;;;;;;;62.97;22.83;;;2.20;99.90;;;;;;4956950;29;20090;-91
2021/12/06 06:25:17;;;;;;;60.57;22.17;;;1.60;99.90;;;;;;4957469;29;20086;-91
2021/12/06 06:27:57;;;;;;;65.73;23.43;;;1.60;99.90;;;;;;4956416;29;20055;-91
2021/12/06 06:30:23;;;;;;;65.30;23.97;;;1.60;99.90;;;;;;4958876;29;20130;-91
2021/12/06 06:32:49;;;;;;;61.13;23.83;;;1.60;99.90;;;;;;4955716;29;20442;-92
2021/12/06 06:35:16;;;;;;;60.83;23.10;;;1.90;99.90;;;;;;4957037;29;20074;-91
2021/12/06 06:37:43;;;;;;;62.27;22.83;;;2.30;99.90;;;;;;4956204;28;20066;-90
2021/12/06 06:40:10;;;;;;;55.23;21.50;;;1.60;99.90;;;;;;4940382;29;20062;-91
2021/12/06 06:42:36;;;;;;;54.70;21.63;;;1.80;99.90;;;;;;4940548;29;20058;-91
2021/12/06 06:45:04;;;;;;;59.60;23.10;;;1.50;99.90;;;;;;4956416;29;20047;-90
2021/12/06 06:47:30;;;;;;;60.67;22.80;;;1.80;99.90;;;;;;4955725;29;20047;-91
2021/12/06 06:49:55;;;;;;;58.50;21.50;;;1.60;99.90;;;;;;4968367;29;20050;-91
2021/12/06 06:52:21;;;;;;;63.47;23.37;;;2.60;99.90;;;;;;4972117;28;20515;-92
2021/12/06 06:54:47;;;;;;;55.07;22.03;;;1.50;99.90;;;;;;4956198;29;20039;-91
2021/12/06 06:57:13;;;;;;;58.83;21.50;;;1.60;99.90;;;;;;4956397;29;20053;-91
2021/12/06 06:59:39;;;;;;;60.50;22.57;;;2.90;99.90;;;;;;4971525;29;20052;-91
2021/12/06 07:02:05;;;;;;;57.13;21.87;;;1.90;99.90;;;;;;4966893;29;20098;-91
2021/12/06 07:04:31;;;;;;;58.40;21.57;;;1.60;99.90;;;;;;4956542;29;20389;-91
2021/12/06 07:06:57;;;;;;;53.47;21.67;;;2.00;99.90;;;;;;4956296;29;20054;-91
2021/12/06 07:09:23;;;;;;;57.13;21.97;;;2.30;99.90;;;;;;4956133;29;20058;-92
2021/12/06 07:11:50;;;;;;;60.17;21.90;;;1.50;99.90;;;;;;4956567;29;20059;-91
2021/12/06 07:14:22;;;;;;;53.43;20.87;;;1.90;99.90;;;;;;4956471;29;20054;-92
2021/12/06 07:16:48;;;;;;;57.73;20.30;;;1.80;99.90;;;;;;4955529;29;20051;-91
2021/12/06 07:19:15;;;;;;;52.00;19.87;;;2.50;99.90;;;;;;4957406;29;20051;-91
2021/12/06 07:21:41;;;;;;;49.00;19.67;;;1.40;99.90;;;;;;4940442;29;20051;-91
2021/12/06 07:24:07;;;;;;;56.63;20.20;;;1.30;99.90;;;;;;4955196;29;20047;-91
2021/12/06 07:26:33;;;;;;;51.80;19.73;;;2.60;99.90;;;;;;4956067;29;20138;-90
2021/12/06 07:28:59;;;;;;;55.23;19.93;;;2.40;99.90;;;;;;4955800;29;20137;-91
2021/12/06 07:31:25;;;;;;;52.63;19.87;;;0.90;99.90;;;;;;4956083;29;20047;-89
2021/12/06 07:33:54;;;;;;;53.73;21.03;;;1.60;99.90;;;;;;4955547;29;20043;-91
2021/12/06 07:36:25;;;;;;;52.07;21.33;;;2.60;99.90;;;;;;4954882;29;20051;-91
2021/12/06 07:38:52;;;;;;;49.17;19.30;;;1.20;99.90;;;;;;4955554;29;20407;-90
2021/12/06 07:44:18;;;;;;;52.23;21.03;;;1.80;99.90;;;;;;4936804;29;20065;-93
2021/12/06 07:50:52;;;;;;;50.13;19.90;;;1.10;99.90;;;;;;4932673;29;20047;-88
2021/12/06 07:53:21;;;;;;;46.67;18.55;;;1.60;99.90;;;;;;4953136;29;20063;-88
2021/12/06 07:55:58;;;;;;;48.97;19.00;;;2.00;99.90;;;;;;5019548;23;20516;-86
2021/12/06 07:58:25;;;;;;;45.97;18.10;;;1.80;99.90;;;;;;4935188;29;20448;-87
2021/12/06 08:00:52;;;;;;;53.87;19.90;;;1.40;99.90;;;;;;4918455;29;20043;-86
2021/12/06 08:03:20;;;;;;;48.20;19.50;;;2.10;99.90;;;;;;4934930;29;20507;-86
2021/12/06 08:05:50;;;;;;;44.83;18.80;;;2.10;99.90;;;;;;4934181;29;20044;-86
2021/12/06 08:08:24;;;;;;;46.83;19.27;;;2.00;99.90;;;;;;4935600;29;20047;-87
2021/12/06 08:17:26;;;;;;;;;;;;;;;;;;;;;
2021/12/06 08:20:13;;;;;;;57.03;20.80;;;1.70;99.90;;;;;;4939314;29;20055;-87
2021/12/06 08:22:44;;;;;;;54.47;21.17;;;3.00;99.90;;;;;;4964619;29;20031;-86
2021/12/06 08:25:28;;;;;;;54.03;20.97;;;1.50;99.90;;;;;;4970355;28;20058;-86
2021/12/06 08:28:29;;;;;;;52.83;21.70;;;2.20;99.90;;;;;;5013949;23;20074;-86
2021/12/06 08:31:27;;;;;;;53.63;21.50;;;2.00;99.90;;;;;;5032976;23;20054;-87
2021/12/06 08:34:46;;;;;;;;;;;;;;;;;;;;;
2021/12/06 08:38:26;;;;;;;57.00;21.97;;;1.50;99.90;;;;;;4900088;29;20095;-91
2021/12/06 08:41:20;;;;;;;56.37;21.37;;;1.70;99.90;;;;;;4933712;29;20539;-87
2021/12/06 08:44:24;;;;;;;;;;;;;;;;;;;;;
2021/12/06 09:04:02;;;;;;;74.93;27.03;;;1.60;99.90;;;;;;4882538;29;20052;-89
2021/12/06 09:15:02;;;;;;;83.00;29.30;;;1.60;99.90;;;;;;5039036;23;20059;-94
2021/12/06 09:17:28;;;;;;;77.85;29.13;;;1.50;99.90;;;;;;4940092;29;20051;-91
2021/12/06 09:19:54;;;;;;;74.53;29.37;;;1.70;99.90;;;;;;4938878;29;20055;-92
2021/12/06 09:22:21;;;;;;;68.77;27.03;;;1.50;99.90;;;;;;4937593;29;20055;-86
2021/12/06 09:28:33;;;;;;;48.83;20.63;;;2.60;99.90;;;;;;4902547;29;20131;-86
2021/12/06 09:31:44;;;;;;;45.67;19.07;;;2.70;99.90;;;;;;4898361;29;20076;-87
2021/12/06 09:34:42;;;;;;;47.47;18.57;;;1.50;99.90;;;;;;4863589;29;20057;-88
2021/12/06 09:41:26;;;;;;;41.20;16.97;;;1.00;99.90;;;;;;4876529;29;20053;-87
2021/12/06 09:44:55;;;;;;;36.03;15.50;;;1.50;99.90;;;;;;4854770;29;20053;-87
2021/12/06 09:48:17;;;;;;;;;;;;;;;;;;;;;
2021/12/06 09:55:00;;;;;;;;;;;;;;;;;;;;;
2021/12/06 09:57:40;;;;;;;39.33;16.77;;;0.90;99.90;;;;;;4993153;23;20110;-86
2021/12/06 10:01:00;;;;;;;41.17;16.93;;;1.60;99.90;;;;;;4943973;29;20051;-90
2021/12/06 10:16:26;;;;;;;37.57;16.03;;;1.80;99.90;;;;;;4991670;23;20427;-86
2021/12/06 10:18:59;;;;;;;38.43;16.63;;;1.60;99.90;;;;;;4978396;28;20097;-87
2021/12/06 10:22:01;;;;;;;;;;;;;;;;;;;;;
2021/12/06 10:25:53;;;;;;;32.53;14.63;;;1.00;99.90;;;;;;4978259;28;20045;-88
2021/12/06 10:29:21;;;;;;;;;;;;;;;;;;;;;
2021/12/06 10:36:23;;;;;;;31.20;14.43;;;2.30;99.90;;;;;;4821245;29;20129;-87
2021/12/06 10:39:36;;;;;;;31.07;13.67;;;1.50;99.90;;;;;;4889630;29;20051;-87
2021/12/06 10:42:04;;;;;;;32.20;14.43;;;1.50;99.90;;;;;;4905114;29;20066;-86
2021/12/06 10:45:00;;;;;;;29.73;14.47;;;2.30;99.90;;;;;;4962245;28;20133;-86
2021/12/06 10:47:49;;;;;;;26.37;13.17;;;3.10;99.90;;;;;;4980353;28;20050;-86
2021/12/06 10:50:18;;;;;;;28.10;14.03;;;1.20;99.90;;;;;;4980292;28;20042;-86
2021/12/06 10:52:49;;;;;;;27.50;13.87;;;2.80;99.90;;;;;;4977243;28;20129;-86
2021/12/06 10:55:15;;;;;;;29.97;14.27;;;3.00;99.90;;;;;;4978262;28;20050;-86
2021/12/06 10:57:55;;;;;;;33.33;15.53;;;2.10;99.90;;;;;;4995715;28;20097;-86
2021/12/06 11:00:49;;;;;;;32.17;14.93;;;2.20;99.90;;;;;;4977620;28;20050;-85
2021/12/06 11:03:31;;;;;;;34.88;16.27;;;2.10;99.90;;;;;;4955974;28;20138;-86
2021/12/06 11:06:10;;;;;;;34.13;15.87;;;2.20;99.90;;;;;;4975840;28;20047;-85
2021/12/06 11:08:37;;;;;;;31.87;16.17;;;2.30;99.90;;;;;;4958278;28;20051;-85
2021/12/06 11:11:09;;;;;;;37.17;19.03;;;2.30;99.90;;;;;;4958872;28;20043;-86
2021/12/06 11:13:41;;;;;;;39.97;18.40;;;2.40;99.90;;;;;;4958730;28;20051;-86
2021/12/06 11:16:27;;;;;;;38.67;18.43;;;3.00;99.90;;;;;;4957699;28;20058;-86
2021/12/06 11:19:06;;;;;;;39.03;18.87;;;2.40;99.90;;;;;;4958708;28;20054;-87
2021/12/06 11:22:21;;;;;;;38.43;19.30;;;2.40;99.90;;;;;;4958962;28;20053;-88
2021/12/06 11:25:38;;;;;;;37.67;18.50;;;2.50;99.90;;;;;;4968639;28;20047;-89
2021/12/06 11:31:19;;;;;;;32.53;15.70;;;2.20;99.90;;;;;;4894354;29;20056;-86
2021/12/06 11:34:17;;;;;;;27.60;13.90;;;2.20;99.90;;;;;;4897256;29;20520;-90
2021/12/06 11:40:09;;;;;;;29.42;14.00;;;3.00;99.90;;;;;;4960877;28;20050;-87
2021/12/06 11:45:59;;;;;;;29.17;13.77;;;2.20;99.90;;;;;;4935565;28;20503;-93
2021/12/06 11:48:48;;;;;;;30.17;14.53;;;3.20;99.90;;;;;;4978544;28;20050;-84
2021/12/06 11:51:16;;;;;;;30.27;15.23;;;2.90;99.90;;;;;;4976970;28;20454;-85
2021/12/06 12:01:10;;;;;;;30.37;14.23;;;3.10;99.90;;;;;;5020131;23;20081;-87
2021/12/06 12:03:37;;;;;;;28.23;13.10;;;2.10;99.90;;;;;;4996255;28;20145;-87
2021/12/06 12:06:30;;;;;;;30.30;14.10;;;3.10;99.90;;;;;;4996730;28;20132;-89
2021/12/06 12:09:04;;;;;;;30.87;14.03;;;2.30;99.90;;;;;;4995555;28;20112;-85
2021/12/06 12:11:57;;;;;;;26.87;14.20;;;2.60;99.90;;;;;;4995587;28;20509;-86
2021/12/06 12:15:01;;;;;;;;;;;;;;;;;;;;;
2021/12/06 12:17:49;;;;;;;27.93;13.30;;;2.60;99.90;;;;;;4914277;29;20406;-86
2021/12/06 12:20:40;;;;;;;30.17;14.47;;;3.30;99.90;;;;;;4974610;28;20046;-86
2021/12/06 12:23:59;;;;;;;29.08;14.45;;;2.90;99.90;;;;;;4996211;28;20045;-86
2021/12/06 12:26:42;;;;;;;30.20;14.90;;;2.50;99.90;;;;;;4986432;28;20088;-85
2021/12/06 12:29:23;;;;;;;31.27;15.30;;;2.90;99.90;;;;;;4953763;29;20059;-86
2021/12/06 12:32:49;;;;;;;31.30;15.27;;;2.40;99.90;;;;;;4939259;29;20499;-86
2021/12/06 12:35:17;;;;;;;32.23;15.43;;;4.00;99.90;;;;;;4936041;29;20451;-86
2021/12/06 12:38:02;;;;;;;33.08;15.73;;;2.70;99.90;;;;;;4895947;29;20441;-86
2021/12/06 12:40:44;;;;;;;36.40;16.67;;;3.40;99.90;;;;;;4921230;29;20106;-86
2021/12/06 12:43:43;;;;;;;33.43;16.17;;;2.10;99.90;;;;;;4966319;28;20049;-85
2021/12/06 12:46:32;;;;;;;32.40;15.50;;;2.90;99.90;;;;;;5012476;28;20049;-86
2021/12/06 12:49:01;;;;;;;35.73;18.63;;;3.10;99.90;;;;;;4995795;28;20486;-85
2021/12/06 12:55:07;;;;;;;40.53;20.70;;;3.20;99.90;;;;;;4994845;28;20128;-85
2021/12/06 12:57:37;;;;;;;42.72;21.70;;;3.10;99.90;;;;;;4995989;28;20072;-86
2021/12/06 13:00:07;;;;;;;39.20;20.10;;;3.60;99.90;;;;;;4991147;28;20201;-86
2021/12/06 13:02:45;;;;;;;;;;;;;;;;;;;;;
2021/12/06 13:06:11;;;;;;;;;;;;;;;;;;;;;
2021/12/06 13:09:32;;;;;;;41.30;19.90;;;3.80;99.90;;;;;;4956985;28;20056;-86
2021/12/06 13:15:55;;;;;;;41.00;20.90;;;3.20;99.90;;;;;;4987848;28;20375;-85
2021/12/06 13:22:11;;;;;;;41.95;20.75;;;3.70;99.90;;;;;;4963364;28;20058;-85
2021/12/06 13:24:46;;;;;;;41.70;20.47;;;4.10;99.90;;;;;;4996001;28;20394;-86
2021/12/06 13:27:21;;;;;;;41.50;20.73;;;3.50;99.90;;;;;;4995952;28;20073;-86
2021/12/06 13:30:37;;;;;;;37.27;20.10;;;4.10;99.90;;;;;;5011850;28;20054;-86
2021/12/06 13:33:38;;;;;;;41.50;20.80;;;3.30;99.90;;;;;;4976740;28;20050;-86
2021/12/06 13:36:22;;;;;;;;;;;;;;;;;;;;;
2021/12/06 13:39:40;;;;;;;40.53;20.37;;;3.30;99.90;;;;;;4992024;28;20058;-87
2021/12/06 13:42:28;;;;;;;41.10;20.03;;;3.40;99.90;;;;;;4994356;28;20038;-85
2021/12/06 13:45:20;;;;;;;41.73;20.87;;;3.30;99.90;;;;;;4994759;28;20554;-85
2021/12/06 13:52:02;;;;;;;38.00;19.53;;;3.20;99.90;;;;;;5016319;28;20414;-86
2021/12/06 13:55:08;;;;;;;39.67;21.03;;;4.10;99.90;;;;;;4988101;28;20514;-86
2021/12/06 14:04:51;;;;;;;41.20;21.60;;;3.10;99.90;;;;;;4906283;29;20161;-89
2021/12/06 14:11:01;;;;;;;46.05;20.38;;;2.90;99.90;;;;;;4918289;28;20040;-89
2021/12/06 14:13:57;;;;;;;42.57;20.90;;;2.50;99.90;;;;;;4990539;28;20113;-91
2021/12/06 14:20:15;;;;;;;45.30;20.70;;;3.00;99.90;;;;;;4973514;28;20057;-90
2021/12/06 14:29:59;;;;;;;43.83;21.40;;;3.70;99.90;;;;;;4980256;28;20073;-90
2021/12/06 14:33:08;;;;;;;41.93;20.70;;;3.10;99.90;;;;;;5024871;28;20041;-89
2021/12/06 14:58:42;;;;;;;40.63;19.67;;;3.40;99.90;;;;;;4863079;29;20057;-93
2021/12/06 15:12:28;;;;;;;;;;;;;;;;;;;;;
2021/12/06 15:22:53;;;;;;;;;;;;;;;;;;;;;
2021/12/06 15:30:04;;;;;;;43.43;20.83;;;2.90;99.90;;;;;;5122323;23;20053;-94
2021/12/06 15:37:19;;;;;;;44.63;21.03;;;2.90;99.90;;;;;;4831773;29;20057;-93
2021/12/06 15:48:43;;;;;;;46.10;21.50;;;3.10;99.90;;;;;;4892754;29;20068;-90
2021/12/06 15:51:20;;;;;;;45.43;21.37;;;2.90;99.90;;;;;;4914764;29;20080;-88
2021/12/06 15:53:52;;;;;;;47.33;22.43;;;2.80;99.90;;;;;;4915537;29;20064;-89
2021/12/06 15:56:20;;;;;;;44.63;21.53;;;2.90;99.90;;;;;;4903973;28;20048;-87
2021/12/06 15:58:49;;;;;;;45.47;22.53;;;2.90;99.90;;;;;;4958164;28;20395;-89
2021/12/06 16:01:18;;;;;;;47.10;23.63;;;2.00;99.90;;;;;;4957844;28;20526;-88
2021/12/06 16:04:08;;;;;;;45.33;23.33;;;3.00;99.90;;;;;;4956939;28;20113;-90
2021/12/06 16:06:38;;;;;;;48.70;24.10;;;2.90;99.90;;;;;;4957541;28;20403;-93
2021/12/06 16:09:13;;;;;;;52.10;25.17;;;2.80;99.90;;;;;;4957785;28;20050;-90
2021/12/06 16:11:56;;;;;;;53.70;26.40;;;2.90;99.90;;;;;;4957663;28;20047;-89
2021/12/06 16:14:28;;;;;;;50.60;24.03;;;3.00;99.90;;;;;;4959210;28;20193;-89
2021/12/06 16:16:58;;;;;;;55.93;25.77;;;3.00;99.90;;;;;;4960316;28;20066;-90
2021/12/06 16:19:28;;;;;;;52.17;25.47;;;3.00;99.90;;;;;;4970069;28;20054;-89
2021/12/06 16:22:15;;;;;;;54.13;27.53;;;2.90;99.90;;;;;;4965498;28;20078;-90
2021/12/06 16:24:49;;;;;;;54.93;26.43;;;2.90;99.90;;;;;;4957697;28;20089;-89
2021/12/06 16:27:19;;;;;;;55.53;28.40;;;2.90;99.90;;;;;;4959982;28;20113;-89
2021/12/06 16:29:56;;;;;;;54.22;27.50;;;3.10;99.90;;;;;;4970219;28;20093;-88
2021/12/06 16:32:28;;;;;;;57.20;27.50;;;2.90;99.90;;;;;;4957847;28;20065;-87
2021/12/06 16:34:56;;;;;;;56.90;28.10;;;3.00;99.90;;;;;;4974772;28;20058;-89
2021/12/06 16:37:27;;;;;;;56.63;29.23;;;3.10;99.90;;;;;;4957467;28;20054;-88
2021/12/06 16:40:03;;;;;;;60.27;29.60;;;2.90;99.90;;;;;;4963721;28;20114;-90
2021/12/06 16:42:33;;;;;;;61.33;31.30;;;2.90;99.90;;;;;;4958028;28;20098;-92
2021/12/06 16:45:20;;;;;;;58.20;29.10;;;3.00;99.90;;;;;;4965520;28;20047;-90
2021/12/06 16:47:49;;;;;;;56.80;28.50;;;3.00;99.90;;;;;;4957368;28;20057;-93